Time;durP1;ratioP1;P1;durP2;ratioP2;P2;SDS_P1;SDS_P2;PMS_P1;PMS_P2;Temp;Humidity;BMP_temperature;BMP_pressure;BME280_temperature;BME280_humidity;BME280_pressure;Samples;Min_cycle;Max_cycle;Signal;HPM_P1;HPM_P2
2023/05/14 00:00:05;;;;;;;4.45;3.72;;;12.00;99.90;;;;;;5010274;28;20046;-76
2023/05/14 00:02:32;;;;;;;7.20;3.75;;;12.00;99.90;;;;;;4980964;28;20142;-76
2023/05/14 00:04:58;;;;;;;4.25;3.85;;;12.00;99.90;;;;;;4994825;28;20375;-76
2023/05/14 00:07:29;;;;;;;6.85;3.55;;;12.00;99.90;;;;;;4995022;28;20054;-76
2023/05/14 00:09:57;;;;;;;6.43;3.50;;;12.00;99.90;;;;;;4994079;28;20462;-77
2023/05/14 00:12:25;;;;;;;3.75;3.03;;;12.00;99.90;;;;;;4996637;28;20050;-76
2023/05/14 00:14:52;;;;;;;3.67;3.00;;;12.00;99.90;;;;;;4995248;28;20050;-76
2023/05/14 00:17:19;;;;;;;5.47;3.20;;;12.00;99.90;;;;;;4994864;28;20425;-76
2023/05/14 00:19:46;;;;;;;5.25;3.28;;;11.90;99.90;;;;;;5002784;28;20074;-76
2023/05/14 00:22:13;;;;;;;3.20;2.90;;;11.90;99.90;;;;;;4994970;28;20050;-77
2023/05/14 00:24:39;;;;;;;3.40;3.10;;;11.90;99.90;;;;;;5001156;28;20118;-75
2023/05/14 00:27:06;;;;;;;5.45;3.28;;;11.80;99.90;;;;;;4993809;28;20063;-76
2023/05/14 00:29:33;;;;;;;4.82;4.05;;;11.70;99.90;;;;;;4993200;28;20054;-76
2023/05/14 00:32:00;;;;;;;7.05;4.53;;;11.70;99.90;;;;;;4994364;28;20046;-76
2023/05/14 00:34:26;;;;;;;3.80;3.40;;;11.60;99.90;;;;;;4993401;28;20047;-76
2023/05/14 00:36:53;;;;;;;4.45;4.00;;;11.70;99.90;;;;;;4985258;28;20054;-76
2023/05/14 00:39:20;;;;;;;6.22;4.10;;;11.70;99.90;;;;;;4994427;28;20046;-76
2023/05/14 00:41:46;;;;;;;6.10;3.72;;;11.60;99.90;;;;;;4994637;28;20153;-76
2023/05/14 00:44:13;;;;;;;4.18;3.28;;;11.60;99.90;;;;;;4993264;28;20068;-76
2023/05/14 00:46:40;;;;;;;4.72;3.92;;;11.60;99.90;;;;;;4992991;28;20054;-76
2023/05/14 00:49:07;;;;;;;6.30;4.28;;;11.60;99.90;;;;;;4987281;28;20055;-76
2023/05/14 00:51:33;;;;;;;4.63;3.58;;;11.60;99.90;;;;;;4992727;28;20046;-76
2023/05/14 00:54:00;;;;;;;4.90;3.92;;;11.60;99.90;;;;;;4992960;28;20343;-76
2023/05/14 00:56:28;;;;;;;4.93;3.70;;;11.60;99.90;;;;;;4993861;28;20043;-76
2023/05/14 00:58:54;;;;;;;6.50;3.70;;;11.60;99.90;;;;;;4981163;28;20407;-76
2023/05/14 01:01:21;;;;;;;4.05;3.17;;;11.60;99.90;;;;;;4997938;28;20049;-76
2023/05/14 01:03:48;;;;;;;4.03;3.60;;;11.60;99.90;;;;;;4992067;28;20046;-76
2023/05/14 01:06:23;;;;;;;4.00;3.60;;;11.60;99.90;;;;;;4992657;28;20046;-75
2023/05/14 01:09:16;;;;;;;5.07;3.63;;;11.60;99.90;;;;;;5007747;28;20053;-76
2023/05/14 01:12:12;;;;;;;6.45;3.47;;;11.60;99.90;;;;;;5008186;28;20053;-78
2023/05/14 01:15:01;;;;;;;4.35;3.45;;;11.60;99.90;;;;;;4992929;28;20213;-76
2023/05/14 01:17:30;;;;;;;8.07;4.13;;;11.60;99.90;;;;;;5007593;28;20134;-76
2023/05/14 01:19:59;;;;;;;3.63;3.33;;;11.60;99.90;;;;;;4993578;28;20073;-77
2023/05/14 01:22:25;;;;;;;5.03;3.70;;;11.60;99.90;;;;;;4994008;28;20046;-77
2023/05/14 01:24:52;;;;;;;5.10;3.92;;;11.50;99.90;;;;;;4992413;28;20082;-77
2023/05/14 01:27:35;;;;;;;5.82;4.10;;;11.50;99.90;;;;;;4989655;28;20137;-77
2023/05/14 01:30:27;;;;;;;5.45;3.60;;;11.50;99.90;;;;;;5006463;28;20046;-76
2023/05/14 01:32:58;;;;;;;5.63;4.32;;;11.50;99.90;;;;;;4993470;28;20046;-77
2023/05/14 01:35:27;;;;;;;6.15;4.30;;;11.50;99.90;;;;;;4979615;28;20470;-77
2023/05/14 01:37:57;;;;;;;5.55;4.13;;;11.40;99.90;;;;;;4999775;28;20479;-76
2023/05/14 01:40:24;;;;;;;4.10;3.70;;;11.50;99.90;;;;;;4995301;28;20056;-77
2023/05/14 01:42:52;;;;;;;10.02;4.55;;;11.50;99.90;;;;;;4993168;28;20065;-77
2023/05/14 01:45:20;;;;;;;5.00;4.28;;;11.40;99.90;;;;;;5005660;28;20051;-77
2023/05/14 01:47:47;;;;;;;5.32;4.30;;;11.40;99.90;;;;;;5004959;28;20057;-76
2023/05/14 01:50:14;;;;;;;7.63;4.88;;;11.50;99.90;;;;;;4993173;28;20068;-77
2023/05/14 01:52:41;;;;;;;5.78;4.57;;;11.40;99.90;;;;;;4992096;28;20081;-77
2023/05/14 01:55:08;;;;;;;5.65;5.05;;;11.40;99.90;;;;;;5007963;28;20046;-77
2023/05/14 01:57:35;;;;;;;5.60;4.72;;;11.40;99.90;;;;;;4989845;28;20195;-77
2023/05/14 02:00:03;;;;;;;6.05;4.60;;;11.40;99.90;;;;;;5007941;28;20133;-77
2023/05/14 02:02:29;;;;;;;6.93;4.57;;;11.40;99.90;;;;;;5004568;28;20051;-77
2023/05/14 02:04:56;;;;;;;7.03;4.10;;;11.40;99.90;;;;;;4991351;28;20054;-77
2023/05/14 02:07:23;;;;;;;8.60;4.90;;;11.40;99.90;;;;;;5000170;28;20304;-77
2023/05/14 02:09:50;;;;;;;5.45;4.80;;;11.40;99.90;;;;;;4992188;28;20154;-77
2023/05/14 02:12:16;;;;;;;17.63;4.72;;;11.40;99.90;;;;;;5002507;28;20042;-77
2023/05/14 02:14:43;;;;;;;7.82;4.70;;;11.30;99.90;;;;;;4993454;28;20235;-77
2023/05/14 02:17:10;;;;;;;5.70;4.47;;;11.30;99.90;;;;;;5008795;28;20120;-77
2023/05/14 02:19:37;;;;;;;6.93;5.57;;;11.30;99.90;;;;;;4990666;28;20074;-77
2023/05/14 02:22:04;;;;;;;7.65;5.10;;;11.30;99.90;;;;;;5007474;28;20656;-77
2023/05/14 02:24:30;;;;;;;4.32;3.92;;;11.30;99.90;;;;;;4992522;28;20097;-77
2023/05/14 02:26:59;;;;;;;8.05;4.53;;;11.20;99.90;;;;;;5007247;28;20058;-77
2023/05/14 02:29:27;;;;;;;4.43;3.97;;;11.20;99.90;;;;;;4980676;28;20474;-77
2023/05/14 02:31:53;;;;;;;6.88;4.30;;;11.20;99.90;;;;;;4990955;28;20050;-77
2023/05/14 02:34:20;;;;;;;7.03;4.38;;;11.10;99.90;;;;;;4991113;28;20058;-77
2023/05/14 02:36:47;;;;;;;7.07;4.22;;;11.20;99.90;;;;;;4974714;28;20057;-77
2023/05/14 02:39:14;;;;;;;4.97;4.10;;;11.10;99.90;;;;;;4973150;28;20053;-77
2023/05/14 02:41:40;;;;;;;7.88;4.82;;;11.10;99.90;;;;;;4990641;28;20058;-77
2023/05/14 02:44:07;;;;;;;7.03;4.47;;;11.00;99.90;;;;;;4991988;28;20509;-77
2023/05/14 02:46:34;;;;;;;6.25;4.53;;;11.00;99.90;;;;;;5003625;28;20050;-77
2023/05/14 02:49:01;;;;;;;7.55;4.63;;;11.00;99.90;;;;;;4990569;28;20501;-77
2023/05/14 02:51:28;;;;;;;7.05;3.80;;;11.00;99.90;;;;;;4998554;28;20042;-77
2023/05/14 02:53:55;;;;;;;7.53;3.72;;;11.00;99.90;;;;;;4997180;28;20129;-77
2023/05/14 02:56:21;;;;;;;5.82;4.38;;;11.00;99.90;;;;;;4991938;28;20049;-77
2023/05/14 02:58:48;;;;;;;5.40;4.38;;;11.00;99.90;;;;;;4990757;28;20054;-77
2023/05/14 03:01:17;;;;;;;4.93;4.38;;;11.00;99.90;;;;;;4992014;28;20133;-77
2023/05/14 03:03:44;;;;;;;7.20;4.53;;;11.00;99.90;;;;;;4987366;28;20050;-77
2023/05/14 03:06:11;;;;;;;4.30;3.80;;;10.90;99.90;;;;;;4993194;28;20304;-77
2023/05/14 03:08:38;;;;;;;6.15;4.32;;;10.90;99.90;;;;;;4990553;28;20125;-77
2023/05/14 03:11:05;;;;;;;8.68;4.78;;;10.90;99.90;;;;;;5007684;28;20046;-77
2023/05/14 03:13:32;;;;;;;6.70;4.40;;;10.90;99.90;;;;;;4988747;28;20449;-77
2023/05/14 03:15:59;;;;;;;5.25;3.83;;;10.90;99.90;;;;;;4991784;28;20061;-77
2023/05/14 03:18:27;;;;;;;4.70;4.20;;;10.90;99.90;;;;;;4993019;28;20050;-77
2023/05/14 03:20:54;;;;;;;4.10;3.70;;;10.90;99.90;;;;;;4990626;28;20122;-77
2023/05/14 03:23:20;;;;;;;4.72;3.95;;;11.00;99.90;;;;;;4990299;28;20046;-77
2023/05/14 03:25:47;;;;;;;6.95;4.05;;;11.00;99.90;;;;;;4994348;28;20054;-77
2023/05/14 03:28:14;;;;;;;4.45;3.92;;;11.00;99.90;;;;;;4991697;28;20498;-77
2023/05/14 03:30:41;;;;;;;7.63;4.00;;;11.00;99.90;;;;;;4991541;28;20054;-77
2023/05/14 03:33:07;;;;;;;4.30;3.60;;;11.10;99.90;;;;;;4990591;28;20116;-77
2023/05/14 03:35:34;;;;;;;4.05;3.65;;;11.10;99.90;;;;;;4997837;28;20058;-77
2023/05/14 03:38:01;;;;;;;4.40;4.00;;;11.10;99.90;;;;;;4997171;28;20077;-76
2023/05/14 03:40:28;;;;;;;7.15;3.85;;;11.10;99.90;;;;;;4994221;28;20088;-77
2023/05/14 03:42:54;;;;;;;4.70;4.03;;;11.10;99.90;;;;;;4991379;28;20058;-77
2023/05/14 03:45:21;;;;;;;3.97;3.58;;;11.10;99.90;;;;;;5003970;28;20510;-77
2023/05/14 03:47:48;;;;;;;6.82;4.80;;;11.10;99.90;;;;;;5003040;28;20046;-77
2023/05/14 03:50:15;;;;;;;6.10;4.80;;;11.10;99.90;;;;;;5006318;28;20126;-77
2023/05/14 03:52:43;;;;;;;6.82;5.80;;;11.10;99.90;;;;;;4990357;28;20059;-76
2023/05/14 03:55:09;;;;;;;6.53;5.70;;;11.00;99.90;;;;;;5006386;28;20699;-77
2023/05/14 03:57:36;;;;;;;9.10;5.13;;;11.10;99.90;;;;;;4991552;28;20415;-77
2023/05/14 04:00:03;;;;;;;6.75;5.03;;;11.10;99.90;;;;;;4994075;28;20043;-77
2023/05/14 04:02:30;;;;;;;5.47;4.70;;;11.20;99.90;;;;;;5003462;28;20082;-76
2023/05/14 04:04:57;;;;;;;7.47;4.95;;;11.20;99.90;;;;;;4977806;28;20058;-77
2023/05/14 04:07:24;;;;;;;5.00;4.60;;;11.20;99.90;;;;;;4995054;28;20046;-77
2023/05/14 04:09:50;;;;;;;5.22;4.63;;;11.30;99.90;;;;;;4994619;28;20173;-77
2023/05/14 04:12:17;;;;;;;6.07;4.68;;;11.40;99.90;;;;;;5002351;28;20042;-77
2023/05/14 04:14:44;;;;;;;4.97;4.35;;;11.40;99.90;;;;;;5009611;28;20414;-77
2023/05/14 04:17:11;;;;;;;4.57;3.58;;;11.40;99.90;;;;;;5009616;28;20584;-76
2023/05/14 04:19:39;;;;;;;3.95;3.22;;;11.40;99.90;;;;;;4992269;28;20076;-77
2023/05/14 04:22:06;;;;;;;5.22;3.63;;;11.50;99.90;;;;;;5000328;28;20070;-77
2023/05/14 04:24:32;;;;;;;5.22;3.80;;;11.50;99.90;;;;;;4996615;28;20100;-77
2023/05/14 04:26:59;;;;;;;3.95;3.55;;;11.50;99.90;;;;;;4994148;28;20410;-77
2023/05/14 04:29:26;;;;;;;5.75;3.55;;;11.60;99.90;;;;;;5006794;28;20125;-77
2023/05/14 04:31:52;;;;;;;5.13;4.10;;;11.60;99.90;;;;;;4981489;28;20086;-77
2023/05/14 04:34:19;;;;;;;4.57;4.18;;;11.60;99.90;;;;;;5000385;28;20046;-77
2023/05/14 04:36:46;;;;;;;5.13;4.00;;;11.60;99.90;;;;;;4991424;28;20477;-77
2023/05/14 04:39:13;;;;;;;6.10;4.13;;;11.70;99.90;;;;;;5009406;28;20073;-77
2023/05/14 04:41:41;;;;;;;5.72;4.20;;;11.70;99.90;;;;;;4992356;28;20046;-77
2023/05/14 04:44:08;;;;;;;6.80;4.30;;;11.70;99.90;;;;;;4991575;28;20112;-77
2023/05/14 04:46:34;;;;;;;4.05;3.65;;;11.80;99.90;;;;;;4994191;28;20057;-77
2023/05/14 04:49:01;;;;;;;5.22;4.43;;;11.80;99.90;;;;;;4993297;28;20077;-77
2023/05/14 04:51:28;;;;;;;5.72;4.38;;;11.90;99.90;;;;;;4994055;28;20493;-77
2023/05/14 04:53:55;;;;;;;5.13;4.50;;;11.90;99.90;;;;;;4991224;28;20054;-77
2023/05/14 04:56:21;;;;;;;6.15;5.55;;;11.90;99.90;;;;;;5007209;28;20538;-77
2023/05/14 04:58:48;;;;;;;8.30;5.53;;;11.90;99.90;;;;;;4985469;28;20060;-76
2023/05/14 05:01:15;;;;;;;7.03;5.30;;;11.90;99.90;;;;;;5009799;28;20050;-77
2023/05/14 05:03:42;;;;;;;6.25;5.00;;;11.90;99.90;;;;;;4992007;28;20100;-77
2023/05/14 05:06:09;;;;;;;4.57;4.13;;;11.90;99.90;;;;;;4999625;28;20057;-77
2023/05/14 05:08:35;;;;;;;6.65;4.53;;;11.90;99.90;;;;;;4991977;28;20081;-77
2023/05/14 05:11:03;;;;;;;7.30;4.30;;;11.90;99.90;;;;;;4992548;28;20050;-77
2023/05/14 05:13:31;;;;;;;6.20;5.20;;;11.90;99.90;;;;;;4993516;28;20050;-77
2023/05/14 05:15:57;;;;;;;5.03;4.18;;;12.00;99.90;;;;;;5004823;28;20410;-77
2023/05/14 05:18:24;;;;;;;5.57;4.20;;;12.00;99.90;;;;;;5010563;28;20047;-77
2023/05/14 05:20:51;;;;;;;5.45;4.90;;;12.10;99.90;;;;;;4999317;28;20074;-77
2023/05/14 05:23:17;;;;;;;5.07;4.55;;;12.10;99.90;;;;;;4993602;28;20056;-77
2023/05/14 05:25:44;;;;;;;6.13;4.57;;;12.20;99.90;;;;;;4992881;28;20080;-76
2023/05/14 05:28:11;;;;;;;5.03;4.53;;;12.20;99.90;;;;;;5008541;28;20062;-77
2023/05/14 05:30:39;;;;;;;5.35;4.40;;;12.30;99.90;;;;;;4982761;28;20520;-79
2023/05/14 05:33:05;;;;;;;7.00;4.68;;;12.40;99.90;;;;;;4993307;28;20050;-77
2023/05/14 05:35:32;;;;;;;4.18;3.80;;;12.40;99.90;;;;;;4992004;28;20398;-77
2023/05/14 05:37:59;;;;;;;11.65;4.75;;;12.50;99.90;;;;;;4984192;28;20053;-77
2023/05/14 05:40:27;;;;;;;7.35;5.00;;;12.60;99.90;;;;;;4991118;28;20050;-77
2023/05/14 05:42:54;;;;;;;6.50;4.53;;;12.60;99.90;;;;;;4992093;28;20064;-78
2023/05/14 05:45:21;;;;;;;10.02;4.57;;;12.70;99.90;;;;;;5005148;28;20051;-77
2023/05/14 05:47:47;;;;;;;4.95;4.40;;;12.80;99.90;;;;;;4991944;28;20058;-77
2023/05/14 05:50:14;;;;;;;4.88;4.00;;;12.90;99.90;;;;;;4992985;28;20114;-77
2023/05/14 05:52:41;;;;;;;4.55;4.07;;;13.00;99.90;;;;;;4995607;28;20054;-77
2023/05/14 05:55:08;;;;;;;4.45;3.88;;;13.10;99.90;;;;;;4991941;28;20050;-77
2023/05/14 05:57:35;;;;;;;4.80;3.42;;;13.20;99.90;;;;;;4994177;28;20409;-77
2023/05/14 06:00:11;;;;;;;10.07;3.92;;;13.20;99.90;;;;;;4992810;28;20145;-77
2023/05/14 06:02:39;;;;;;;4.57;3.70;;;13.30;99.90;;;;;;4987402;28;20093;-77
2023/05/14 06:05:08;;;;;;;4.70;3.67;;;13.40;99.90;;;;;;4975861;28;20058;-77
2023/05/14 06:07:35;;;;;;;4.40;3.88;;;13.40;99.90;;;;;;4998513;28;20097;-77
2023/05/14 06:10:02;;;;;;;6.18;3.67;;;13.50;99.90;;;;;;4991885;28;20087;-77
2023/05/14 06:12:28;;;;;;;4.57;4.18;;;13.30;99.90;;;;;;4991935;28;20125;-77
2023/05/14 06:14:56;;;;;;;6.15;5.20;;;13.40;99.90;;;;;;5001176;28;20129;-77
2023/05/14 06:17:24;;;;;;;4.97;4.45;;;13.40;99.90;;;;;;5007892;28;20105;-77
2023/05/14 06:19:51;;;;;;;4.72;3.70;;;13.50;99.90;;;;;;5008004;28;20054;-77
2023/05/14 06:22:18;;;;;;;3.70;3.33;;;13.60;99.90;;;;;;4991616;28;20096;-77
2023/05/14 06:24:45;;;;;;;5.13;4.05;;;13.60;99.90;;;;;;4993465;28;20050;-77
2023/05/14 06:27:11;;;;;;;5.88;4.00;;;13.70;99.90;;;;;;4990911;28;20067;-77
2023/05/14 06:29:38;;;;;;;4.18;3.78;;;13.70;99.90;;;;;;4992241;28;20145;-77
2023/05/14 06:32:05;;;;;;;5.18;3.33;;;13.60;99.90;;;;;;4992757;28;20050;-77
2023/05/14 06:34:33;;;;;;;5.22;3.33;;;13.50;99.90;;;;;;5003669;28;20054;-77
2023/05/14 06:37:01;;;;;;;5.10;3.13;;;13.40;99.90;;;;;;4992233;28;20096;-77
2023/05/14 06:39:28;;;;;;;6.20;3.30;;;13.40;99.90;;;;;;4994990;28;20104;-77
2023/05/14 06:41:55;;;;;;;4.45;3.13;;;13.40;99.90;;;;;;5000595;28;20417;-77
2023/05/14 06:44:21;;;;;;;5.95;4.13;;;13.40;99.90;;;;;;4992163;28;20046;-77
2023/05/14 06:46:48;;;;;;;4.30;3.90;;;13.30;99.90;;;;;;5001519;28;20050;-77
2023/05/14 06:49:15;;;;;;;4.60;3.50;;;13.10;99.90;;;;;;4998531;28;20509;-77
2023/05/14 06:51:42;;;;;;;5.82;3.33;;;13.10;99.90;;;;;;4998571;28;20287;-77
2023/05/14 06:54:08;;;;;;;3.65;3.35;;;13.10;99.90;;;;;;4992556;28;20145;-77
2023/05/14 06:56:35;;;;;;;5.15;4.43;;;13.00;99.90;;;;;;5002406;28;20050;-77
2023/05/14 06:59:02;;;;;;;4.13;3.67;;;13.00;99.90;;;;;;4986789;28;20405;-77
2023/05/14 07:01:29;;;;;;;4.70;3.63;;;13.10;99.90;;;;;;4992418;28;20129;-77
2023/05/14 07:03:56;;;;;;;5.95;3.58;;;13.20;99.90;;;;;;4990710;28;20050;-77
2023/05/14 07:06:23;;;;;;;4.75;3.60;;;13.20;99.90;;;;;;4990826;28;20089;-76
2023/05/14 07:08:49;;;;;;;4.05;3.63;;;13.40;99.90;;;;;;4992907;28;20058;-77
2023/05/14 07:11:16;;;;;;;4.88;3.80;;;13.50;99.90;;;;;;5006349;28;20051;-77
2023/05/14 07:13:43;;;;;;;5.25;3.72;;;13.70;99.90;;;;;;4992180;28;20050;-78
2023/05/14 07:16:09;;;;;;;5.68;3.42;;;13.80;99.90;;;;;;4991738;28;20061;-78
2023/05/14 07:18:36;;;;;;;5.88;3.50;;;14.00;99.90;;;;;;4990860;28;20046;-78
2023/05/14 07:21:06;;;;;;;5.65;3.58;;;14.00;99.90;;;;;;4990702;28;20054;-77
2023/05/14 07:23:35;;;;;;;4.15;3.75;;;14.10;99.90;;;;;;4988903;28;20062;-77
2023/05/14 07:26:04;;;;;;;6.18;4.00;;;14.20;99.90;;;;;;4990401;28;20532;-77
2023/05/14 07:28:31;;;;;;;5.38;3.63;;;14.20;99.90;;;;;;5004093;28;20054;-77
2023/05/14 07:30:58;;;;;;;5.57;4.13;;;14.40;99.90;;;;;;4990821;28;20419;-77
2023/05/14 07:33:25;;;;;;;5.25;4.63;;;14.50;99.90;;;;;;4997781;28;20097;-77
2023/05/14 07:35:53;;;;;;;4.10;3.70;;;14.60;99.90;;;;;;4990549;28;20047;-77
2023/05/14 07:38:20;;;;;;;4.53;4.13;;;14.70;99.90;;;;;;5010685;28;20050;-77
2023/05/14 07:40:46;;;;;;;6.28;4.88;;;14.80;99.90;;;;;;4997756;28;20096;-77
2023/05/14 07:43:13;;;;;;;5.07;4.60;;;14.80;99.90;;;;;;4994095;28;20629;-77
2023/05/14 07:45:40;;;;;;;5.75;4.80;;;14.90;99.90;;;;;;5006907;28;20363;-77
2023/05/14 07:48:07;;;;;;;5.50;5.00;;;14.90;99.90;;;;;;5004013;28;20068;-77
2023/05/14 07:50:34;;;;;;;6.65;4.80;;;15.00;99.90;;;;;;4995667;28;20402;-77
2023/05/14 07:53:01;;;;;;;5.60;4.35;;;15.10;99.90;;;;;;4994320;28;20470;-77
2023/05/14 07:55:27;;;;;;;5.15;4.25;;;15.20;99.90;;;;;;4992416;28;20074;-77
2023/05/14 07:57:54;;;;;;;5.80;4.57;;;15.20;99.90;;;;;;4997914;28;20050;-77
2023/05/14 08:00:21;;;;;;;6.10;4.65;;;15.30;99.90;;;;;;5010724;28;20152;-77
2023/05/14 08:02:49;;;;;;;6.88;4.65;;;15.30;99.90;;;;;;4993186;28;20058;-77
2023/05/14 08:05:17;;;;;;;6.95;4.93;;;15.40;99.90;;;;;;4995409;28;20046;-77
2023/05/14 08:07:43;;;;;;;5.65;4.85;;;15.40;99.90;;;;;;4992663;28;20047;-77
2023/05/14 08:10:10;;;;;;;5.57;4.72;;;15.50;99.90;;;;;;4994022;28;20055;-77
2023/05/14 08:12:38;;;;;;;6.90;4.95;;;15.50;99.90;;;;;;5007474;28;20077;-77
2023/05/14 08:15:06;;;;;;;6.03;5.30;;;15.50;99.90;;;;;;4992077;28;20050;-78
2023/05/14 08:17:33;;;;;;;6.25;5.30;;;15.60;99.90;;;;;;4994209;28;20057;-77
2023/05/14 08:20:00;;;;;;;7.22;5.60;;;15.70;99.90;;;;;;4999487;28;20058;-77
2023/05/14 08:22:27;;;;;;;6.75;5.25;;;15.70;99.90;;;;;;4995530;28;20055;-77
2023/05/14 08:24:53;;;;;;;5.32;4.82;;;15.70;99.90;;;;;;4980268;28;20145;-77
2023/05/14 08:27:21;;;;;;;7.43;5.68;;;15.80;99.90;;;;;;4995262;28;20058;-77
2023/05/14 08:29:48;;;;;;;5.88;5.20;;;15.80;99.90;;;;;;4984997;28;20050;-77
2023/05/14 08:32:15;;;;;;;7.70;5.07;;;15.70;99.90;;;;;;4994919;28;20051;-77
2023/05/14 08:34:50;;;;;;;5.75;5.18;;;15.70;99.90;;;;;;4992132;28;20047;-77
2023/05/14 08:37:17;;;;;;;8.02;5.45;;;15.70;99.90;;;;;;4995105;28;20506;-77
2023/05/14 08:39:44;;;;;;;5.63;5.13;;;15.70;99.90;;;;;;4983421;28;20048;-77
2023/05/14 08:42:12;;;;;;;6.35;5.63;;;15.80;99.90;;;;;;4993714;28;20081;-77
2023/05/14 08:44:47;;;;;;;8.30;5.38;;;15.70;99.90;;;;;;4990919;28;20050;-77
2023/05/14 08:47:17;;;;;;;5.20;4.70;;;15.70;99.90;;;;;;5009947;28;20050;-77
2023/05/14 08:49:48;;;;;;;5.90;5.37;;;15.80;99.90;;;;;;4992595;28;20050;-77
2023/05/14 08:52:16;;;;;;;5.72;5.20;;;15.80;99.90;;;;;;4998569;28;20055;-77
2023/05/14 08:54:45;;;;;;;6.15;5.28;;;15.70;99.90;;;;;;4982903;28;20058;-77
2023/05/14 08:57:13;;;;;;;6.57;5.40;;;15.80;99.90;;;;;;4993130;28;20557;-77
2023/05/14 08:59:40;;;;;;;6.82;6.13;;;15.80;99.90;;;;;;4990403;28;20054;-77
2023/05/14 09:02:08;;;;;;;9.25;5.50;;;15.80;99.90;;;;;;4989437;28;20050;-77
2023/05/14 09:04:36;;;;;;;7.10;6.40;;;15.80;99.90;;;;;;5009493;28;20494;-77
2023/05/14 09:07:03;;;;;;;6.88;6.18;;;15.90;99.90;;;;;;4994545;28;20585;-78
2023/05/14 09:09:30;;;;;;;6.68;5.97;;;15.90;99.90;;;;;;4996102;28;20050;-77
2023/05/14 09:11:57;;;;;;;7.85;6.03;;;15.90;99.90;;;;;;4993238;28;20082;-77
2023/05/14 09:14:23;;;;;;;6.05;5.32;;;15.90;99.90;;;;;;5009081;28;20048;-77
2023/05/14 09:16:51;;;;;;;6.95;6.32;;;16.00;99.90;;;;;;5003078;28;20076;-77
2023/05/14 09:19:19;;;;;;;6.75;6.15;;;16.00;99.90;;;;;;4994176;28;20466;-77
2023/05/14 09:21:47;;;;;;;8.02;6.60;;;15.90;99.90;;;;;;4985727;28;20522;-77
2023/05/14 09:24:22;;;;;;;7.25;5.80;;;15.90;99.90;;;;;;4992750;28;20529;-77
2023/05/14 09:26:53;;;;;;;6.57;5.85;;;15.90;99.90;;;;;;4996862;28;20137;-77
2023/05/14 09:29:20;;;;;;;6.50;5.90;;;16.00;99.90;;;;;;4992796;28;20085;-77
2023/05/14 09:31:50;;;;;;;6.05;5.03;;;16.10;99.90;;;;;;5008988;28;20447;-77
2023/05/14 09:34:25;;;;;;;5.30;4.85;;;16.20;99.90;;;;;;4994126;28;20049;-77
2023/05/14 09:36:57;;;;;;;5.65;5.13;;;16.40;99.90;;;;;;4992853;28;20046;-77
2023/05/14 09:39:25;;;;;;;5.88;5.10;;;16.50;99.90;;;;;;5006058;28;20225;-77
2023/05/14 09:41:53;;;;;;;6.38;5.18;;;16.50;99.90;;;;;;5003590;28;20125;-77
2023/05/14 09:44:20;;;;;;;6.07;5.30;;;16.50;99.90;;;;;;5004938;28;20054;-77
2023/05/14 09:46:48;;;;;;;6.55;5.88;;;16.40;99.90;;;;;;5008823;28;20084;-77
2023/05/14 09:49:15;;;;;;;5.93;5.15;;;16.30;99.90;;;;;;5000911;28;20138;-77
2023/05/14 09:51:42;;;;;;;7.57;6.25;;;16.50;99.90;;;;;;4990855;28;20046;-77
2023/05/14 09:54:09;;;;;;;6.07;5.47;;;16.50;99.90;;;;;;4992204;28;20054;-77
2023/05/14 09:56:38;;;;;;;7.13;5.70;;;16.60;99.90;;;;;;4993684;28;20113;-77
2023/05/14 09:59:05;;;;;;;6.60;6.00;;;16.80;99.90;;;;;;4981391;28;20050;-77
2023/05/14 10:01:31;;;;;;;7.80;6.35;;;17.00;99.90;;;;;;4992986;28;20054;-78
2023/05/14 10:03:59;;;;;;;7.22;5.85;;;17.10;99.90;;;;;;4986733;28;20105;-77
2023/05/14 10:06:29;;;;;;;6.30;5.70;;;17.10;99.90;;;;;;5008323;28;20090;-77
2023/05/14 10:09:00;;;;;;;7.05;5.93;;;17.10;99.90;;;;;;4995496;28;20058;-77
2023/05/14 10:11:31;;;;;;;5.90;5.35;;;17.10;99.90;;;;;;4992450;28;20126;-77
2023/05/14 10:14:17;;;;;;;6.75;6.05;;;17.00;99.90;;;;;;5003662;28;20077;-77
2023/05/14 10:16:49;;;;;;;8.35;5.75;;;17.10;99.90;;;;;;5002482;28;20422;-77
2023/05/14 10:19:19;;;;;;;6.55;5.60;;;17.00;99.90;;;;;;4992089;28;20502;-77
2023/05/14 10:22:02;;;;;;;5.43;4.80;;;17.00;99.90;;;;;;5005439;28;20466;-77
2023/05/14 10:24:30;;;;;;;6.05;4.75;;;17.00;99.90;;;;;;4992851;28;20069;-77
2023/05/14 10:26:57;;;;;;;5.80;4.18;;;17.10;99.90;;;;;;4991354;28;20517;-77
2023/05/14 10:29:35;;;;;;;5.88;4.47;;;17.10;99.90;;;;;;5000859;28;20561;-77
2023/05/14 10:32:05;;;;;;;4.93;4.50;;;17.10;99.90;;;;;;5006904;28;20242;-77
2023/05/14 10:34:44;;;;;;;;;;;17.00;99.90;;;;;;4993133;28;20497;-79
2023/05/14 10:37:16;;;;;;;3.97;3.58;;;17.10;99.90;;;;;;4992044;28;19947;-77
2023/05/14 10:39:44;;;;;;;4.88;3.45;;;17.10;99.90;;;;;;4993248;28;20054;-77
2023/05/14 10:42:28;;;;;;;4.55;3.63;;;17.10;99.90;;;;;;4993492;28;20413;-77
2023/05/14 10:45:01;;;;;;;4.07;3.38;;;17.10;99.90;;;;;;5006197;28;20054;-77
2023/05/14 10:47:28;;;;;;;3.80;3.42;;;17.20;99.90;;;;;;4992123;28;20402;-77
2023/05/14 10:50:00;;;;;;;3.53;3.22;;;17.20;99.90;;;;;;4992632;28;20089;-77
2023/05/14 10:52:28;;;;;;;5.13;3.70;;;17.20;99.90;;;;;;4990237;28;20054;-77
2023/05/14 10:55:06;;;;;;;4.15;3.72;;;17.30;99.90;;;;;;4992888;28;20141;-77
2023/05/14 10:57:35;;;;;;;4.47;3.40;;;17.40;99.90;;;;;;4981985;28;20085;-77
2023/05/14 11:00:02;;;;;;;7.65;3.10;;;17.50;99.90;;;;;;4989563;28;20141;-78
2023/05/14 11:02:32;;;;;;;3.63;3.33;;;17.60;99.90;;;;;;5008789;28;20042;-77
2023/05/14 11:05:04;;;;;;;3.60;3.10;;;17.70;99.90;;;;;;4997831;28;20058;-78
2023/05/14 11:07:36;;;;;;;4.25;3.53;;;17.80;99.90;;;;;;4991098;28;20129;-77
2023/05/14 11:10:10;;;;;;;6.97;3.55;;;17.90;99.90;;;;;;5008768;28;20055;-77
2023/05/14 11:12:42;;;;;;;4.28;3.50;;;18.00;99.90;;;;;;4995760;28;20054;-77
2023/05/14 11:15:11;;;;;;;5.13;3.60;;;18.00;99.90;;;;;;5010533;28;20475;-77
2023/05/14 11:17:40;;;;;;;4.07;3.67;;;18.10;99.90;;;;;;4996677;28;20173;-77
2023/05/14 11:20:08;;;;;;;4.47;2.72;;;18.10;99.90;;;;;;5010278;28;20625;-77
2023/05/14 11:22:36;;;;;;;3.97;3.40;;;18.10;99.90;;;;;;5012339;28;20078;-77
2023/05/14 11:25:03;;;;;;;3.65;3.10;;;18.10;99.90;;;;;;4993076;28;20057;-76
2023/05/14 11:27:33;;;;;;;2.58;2.38;;;18.20;99.90;;;;;;5013486;28;20065;-77
2023/05/14 11:30:02;;;;;;;2.60;2.40;;;18.30;99.90;;;;;;4997293;28;20066;-77
2023/05/14 11:32:31;;;;;;;2.50;2.30;;;18.40;99.90;;;;;;4995828;28;20049;-77
2023/05/14 11:34:58;;;;;;;2.13;1.77;;;18.30;99.90;;;;;;4996035;28;20117;-77
2023/05/14 11:37:25;;;;;;;2.65;2.45;;;18.30;99.90;;;;;;4996078;28;20066;-78
2023/05/14 11:39:53;;;;;;;4.28;2.83;;;18.30;99.90;;;;;;4996855;28;20046;-77
2023/05/14 11:42:21;;;;;;;3.65;2.05;;;18.20;99.90;;;;;;5004077;28;20083;-77
2023/05/14 11:44:50;;;;;;;5.22;2.40;;;18.10;99.90;;;;;;5005961;28;20092;-77
2023/05/14 11:47:20;;;;;;;2.37;1.90;;;18.20;99.90;;;;;;5005379;28;20059;-77
2023/05/14 11:49:47;;;;;;;2.40;2.20;;;18.20;99.90;;;;;;4995275;28;20777;-77
2023/05/14 11:52:15;;;;;;;3.88;2.42;;;18.30;99.90;;;;;;4996479;28;20513;-77
2023/05/14 11:54:43;;;;;;;2.60;2.40;;;18.40;99.90;;;;;;5001252;28;20050;-77
2023/05/14 11:57:16;;;;;;;2.38;2.17;;;18.40;99.90;;;;;;4996059;28;20495;-77
2023/05/14 11:59:43;;;;;;;2.95;2.65;;;18.50;99.90;;;;;;4995532;28;20050;-77
2023/05/14 12:02:12;;;;;;;2.95;2.70;;;18.50;99.90;;;;;;4995758;28;20061;-77
2023/05/14 12:04:39;;;;;;;3.17;2.63;;;18.50;99.90;;;;;;5008993;28;20054;-77
2023/05/14 12:07:14;;;;;;;2.97;2.15;;;18.50;99.90;;;;;;4995325;28;20054;-77
2023/05/14 12:09:50;;;;;;;2.40;2.20;;;18.60;99.90;;;;;;4993132;28;20133;-77
2023/05/14 12:12:19;;;;;;;2.92;2.30;;;18.60;99.90;;;;;;4995638;28;20088;-77
2023/05/14 12:14:46;;;;;;;2.30;2.10;;;18.70;99.90;;;;;;4992764;28;20520;-77
2023/05/14 12:17:15;;;;;;;6.88;2.92;;;18.70;99.90;;;;;;4995656;28;20050;-77
2023/05/14 12:19:43;;;;;;;2.40;2.20;;;18.80;99.90;;;;;;4994542;28;20054;-77
2023/05/14 12:22:12;;;;;;;4.15;2.30;;;18.80;99.90;;;;;;4996004;28;20054;-78
2023/05/14 12:24:39;;;;;;;2.85;2.15;;;18.90;99.90;;;;;;4991190;28;20158;-76
2023/05/14 12:27:08;;;;;;;2.55;2.30;;;19.00;99.90;;;;;;4995842;28;20054;-77
2023/05/14 12:29:36;;;;;;;2.75;2.35;;;18.90;99.90;;;;;;4995168;28;20051;-77
2023/05/14 12:32:08;;;;;;;2.85;2.55;;;19.00;99.90;;;;;;4995166;28;20050;-77
2023/05/14 12:34:36;;;;;;;2.45;2.00;;;19.00;99.90;;;;;;4995633;28;20130;-77
2023/05/14 12:37:04;;;;;;;2.78;1.98;;;19.10;99.90;;;;;;4995327;28;20060;-77
2023/05/14 12:39:32;;;;;;;2.25;2.05;;;19.20;99.90;;;;;;4995506;28;20054;-77
2023/05/14 12:42:00;;;;;;;2.83;2.33;;;19.30;99.90;;;;;;4992324;28;20154;-78
2023/05/14 12:44:27;;;;;;;2.38;2.03;;;19.30;99.90;;;;;;4995452;28;20046;-77
2023/05/14 12:46:54;;;;;;;2.30;2.10;;;19.20;99.90;;;;;;4994932;28;20081;-77
2023/05/14 12:49:20;;;;;;;3.05;2.40;;;19.20;99.90;;;;;;4995104;28;20050;-77
2023/05/14 12:51:47;;;;;;;3.05;2.05;;;19.20;99.90;;;;;;4995532;28;20050;-77